Time;durP1;ratioP1;P1;durP2;ratioP2;P2;SDS_P1;SDS_P2;PMS_P1;PMS_P2;Temp;Humidity;BMP_temperature;BMP_pressure;BME280_temperature;BME280_humidity;BME280_pressure;Samples;Min_cycle;Max_cycle;Signal;HPM_P1;HPM_P2
2022/05/15 00:00:54;;;;;;;10.70;4.47;;;13.60;61.30;;;;;;2301612;58;21500;-72
2022/05/15 00:03:23;;;;;;;11.95;4.12;;;13.60;61.20;;;;;;2301345;58;21106;-72
2022/05/15 00:05:54;;;;;;;13.30;4.12;;;13.50;61.50;;;;;;2301217;58;21050;-73
2022/05/15 00:08:22;;;;;;;14.50;4.55;;;13.40;61.80;;;;;;2301234;58;21070;-72
2022/05/15 00:10:50;;;;;;;14.93;4.78;;;13.40;62.20;;;;;;2300976;58;21133;-73
2022/05/15 00:13:18;;;;;;;17.35;4.62;;;13.30;62.70;;;;;;2301140;58;21058;-73
2022/05/15 00:15:45;;;;;;;12.77;5.25;;;13.30;63.10;;;;;;2301803;58;21152;-73
2022/05/15 00:18:12;;;;;;;12.43;5.68;;;13.20;63.60;;;;;;2301347;58;21039;-72
2022/05/15 00:20:40;;;;;;;13.98;4.50;;;13.20;63.60;;;;;;2301751;58;21117;-73
2022/05/15 00:23:08;;;;;;;15.23;5.12;;;13.20;63.50;;;;;;2302018;58;21042;-72
2022/05/15 00:25:37;;;;;;;16.77;4.93;;;13.20;63.30;;;;;;2301637;58;21054;-73
2022/05/15 00:28:05;;;;;;;15.98;6.20;;;13.10;63.40;;;;;;2301518;58;21050;-73
2022/05/15 00:30:33;;;;;;;15.48;5.20;;;13.10;63.40;;;;;;2302115;58;21066;-72
2022/05/15 00:33:01;;;;;;;16.42;5.50;;;13.10;63.50;;;;;;2300472;58;21063;-73
2022/05/15 00:35:29;;;;;;;14.93;4.70;;;13.10;63.80;;;;;;2301267;58;21054;-72
2022/05/15 00:37:56;;;;;;;14.20;4.72;;;13.00;63.80;;;;;;2301878;58;21126;-72
2022/05/15 00:40:24;;;;;;;13.35;4.62;;;13.00;63.90;;;;;;2301727;58;21102;-72
2022/05/15 00:42:51;;;;;;;12.20;4.82;;;12.90;63.80;;;;;;2301274;58;21201;-72
2022/05/15 00:45:21;;;;;;;10.07;3.40;;;12.90;64.00;;;;;;2301150;58;21134;-74
2022/05/15 00:47:48;;;;;;;6.57;2.70;;;12.80;63.90;;;;;;2301991;58;21075;-73
2022/05/15 00:50:20;;;;;;;7.70;2.67;;;12.80;63.80;;;;;;2300750;58;21572;-72
2022/05/15 00:52:51;;;;;;;5.80;2.50;;;12.80;63.60;;;;;;2538979;54;21054;-72
2022/05/15 00:55:23;;;;;;;9.63;3.83;;;12.80;63.80;;;;;;2301748;58;21066;-72
2022/05/15 00:57:53;;;;;;;6.78;3.17;;;12.70;63.70;;;;;;2301691;58;21059;-72
2022/05/15 01:00:23;;;;;;;8.88;3.50;;;12.70;64.00;;;;;;2301681;58;21055;-72
2022/05/15 01:02:55;;;;;;;9.80;4.10;;;12.60;64.30;;;;;;2301821;58;21113;-73
2022/05/15 01:05:23;;;;;;;9.18;4.10;;;12.60;64.70;;;;;;2301119;58;21071;-72
2022/05/15 01:07:51;;;;;;;5.90;3.00;;;12.60;64.80;;;;;;2300409;58;21075;-73
2022/05/15 01:10:19;;;;;;;7.12;3.70;;;12.50;64.60;;;;;;2301758;58;22208;-72
2022/05/15 01:12:48;;;;;;;6.68;3.40;;;12.40;64.40;;;;;;2302013;58;21133;-72
2022/05/15 01:15:19;;;;;;;10.20;3.80;;;12.40;64.30;;;;;;2301186;58;21109;-72
2022/05/15 01:17:46;;;;;;;10.77;3.65;;;12.40;64.40;;;;;;2301710;58;21173;-72
2022/05/15 01:20:16;;;;;;;13.10;4.05;;;12.40;64.20;;;;;;2301418;58;21062;-72
2022/05/15 01:22:43;;;;;;;6.57;3.17;;;12.40;64.30;;;;;;2301744;58;21051;-72
2022/05/15 01:25:15;;;;;;;10.45;3.87;;;12.30;64.50;;;;;;2301500;58;21589;-72
2022/05/15 01:27:45;;;;;;;11.70;4.30;;;12.30;64.80;;;;;;2538961;54;21059;-72
2022/05/15 01:30:14;;;;;;;8.75;4.10;;;12.30;64.80;;;;;;2301206;58;21050;-72
2022/05/15 01:32:41;;;;;;;10.20;3.78;;;12.30;64.70;;;;;;2301581;58;21120;-72
2022/05/15 01:35:09;;;;;;;11.40;3.90;;;12.30;64.60;;;;;;2301236;58;21227;-72
2022/05/15 01:37:37;;;;;;;13.10;4.37;;;12.20;64.30;;;;;;2300722;58;21138;-73
2022/05/15 01:40:09;;;;;;;8.98;3.78;;;12.20;64.00;;;;;;2300592;58;21074;-72
2022/05/15 01:42:37;;;;;;;11.82;4.25;;;12.20;63.80;;;;;;2538801;54;21146;-73
2022/05/15 01:45:07;;;;;;;14.87;4.37;;;12.20;63.60;;;;;;2300832;58;21062;-73
2022/05/15 01:47:34;;;;;;;10.43;4.50;;;12.20;63.50;;;;;;2301794;58;21063;-72
2022/05/15 01:50:01;;;;;;;8.82;4.37;;;12.20;63.60;;;;;;2301600;58;21070;-72
2022/05/15 01:52:29;;;;;;;16.37;4.47;;;12.20;63.60;;;;;;2538554;54;21117;-72
2022/05/15 01:54:56;;;;;;;10.77;5.05;;;12.20;63.60;;;;;;2301647;58;21082;-72
2022/05/15 01:57:24;;;;;;;11.88;4.93;;;12.20;63.50;;;;;;2301305;58;21074;-72
2022/05/15 01:59:51;;;;;;;10.75;4.82;;;12.10;63.90;;;;;;2301580;58;21134;-72
2022/05/15 02:02:18;;;;;;;11.60;4.40;;;12.10;63.60;;;;;;2301448;58;21605;-72
2022/05/15 02:04:45;;;;;;;7.62;4.20;;;12.00;64.00;;;;;;2301866;58;21047;-72
2022/05/15 02:07:13;;;;;;;11.27;4.35;;;12.00;64.30;;;;;;2301078;58;21158;-72
2022/05/15 02:09:40;;;;;;;12.57;4.40;;;12.00;64.50;;;;;;2301783;58;21074;-71
2022/05/15 02:12:10;;;;;;;12.80;4.60;;;11.90;64.50;;;;;;2302026;58;21616;-72
2022/05/15 02:14:37;;;;;;;12.93;4.18;;;11.90;64.40;;;;;;2301392;58;21137;-72
2022/05/15 02:17:05;;;;;;;15.18;4.75;;;11.90;64.50;;;;;;2539121;54;21054;-73
2022/05/15 02:19:32;;;;;;;12.57;5.12;;;11.80;64.40;;;;;;2302137;58;21589;-72
2022/05/15 02:21:59;;;;;;;8.82;3.60;;;11.80;64.80;;;;;;2301861;58;21086;-72
2022/05/15 02:24:27;;;;;;;4.78;2.80;;;11.80;65.00;;;;;;2301323;58;21106;-72
2022/05/15 02:26:54;;;;;;;7.55;2.97;;;11.70;64.90;;;;;;2301505;58;21130;-72
2022/05/15 02:29:21;;;;;;;5.85;2.55;;;11.70;64.90;;;;;;2302052;58;21125;-72
2022/05/15 02:31:48;;;;;;;4.82;2.33;;;11.60;64.70;;;;;;2301723;58;21601;-72
2022/05/15 02:34:16;;;;;;;6.15;3.08;;;11.60;64.70;;;;;;2301641;58;21144;-73
2022/05/15 02:36:43;;;;;;;5.32;2.65;;;11.50;64.70;;;;;;2301801;58;21123;-72
2022/05/15 02:39:10;;;;;;;8.82;3.97;;;11.60;64.80;;;;;;2302164;58;21066;-72
2022/05/15 02:41:37;;;;;;;6.43;2.92;;;11.50;64.50;;;;;;2300180;58;21146;-73
2022/05/15 02:44:05;;;;;;;8.45;3.20;;;11.50;64.70;;;;;;2301708;58;21138;-72
2022/05/15 02:46:33;;;;;;;7.93;3.00;;;11.50;64.80;;;;;;2301522;58;21114;-72
2022/05/15 02:51:46;;;;;;;9.95;4.00;;;11.40;64.80;;;;;;2302238;58;21074;-72
2022/05/15 02:54:13;;;;;;;7.45;3.25;;;11.40;64.70;;;;;;2301536;58;21066;-72
2022/05/15 02:56:40;;;;;;;8.52;3.62;;;11.40;65.00;;;;;;2301808;58;21573;-72
2022/05/15 02:59:08;;;;;;;6.55;3.53;;;11.40;65.00;;;;;;2300829;58;21710;-72
2022/05/15 03:01:36;;;;;;;9.63;3.55;;;11.30;65.20;;;;;;2301776;58;21078;-71
2022/05/15 03:04:05;;;;;;;8.90;4.00;;;11.30;65.40;;;;;;2301462;58;21157;-72
2022/05/15 03:06:33;;;;;;;8.63;3.78;;;11.30;65.20;;;;;;2301545;58;21066;-72
2022/05/15 03:09:00;;;;;;;9.48;4.03;;;11.20;65.10;;;;;;2301716;58;21062;-72
2022/05/15 03:11:27;;;;;;;6.10;3.17;;;11.20;65.10;;;;;;2301936;58;21125;-72
2022/05/15 03:13:55;;;;;;;7.32;3.03;;;11.20;65.80;;;;;;2301612;58;21616;-73
2022/05/15 03:16:22;;;;;;;7.70;3.10;;;11.20;65.00;;;;;;2301355;58;22281;-72
2022/05/15 03:18:51;;;;;;;6.40;2.97;;;11.20;65.20;;;;;;2301612;58;21034;-71
2022/05/15 03:21:28;;;;;;;9.30;3.42;;;11.20;65.20;;;;;;2301792;58;21107;-72
2022/05/15 03:23:57;;;;;;;6.95;3.17;;;11.10;65.20;;;;;;2288553;58;21909;-72
2022/05/15 03:26:25;;;;;;;4.53;3.20;;;11.10;65.40;;;;;;2301253;58;21055;-72
2022/05/15 03:28:52;;;;;;;7.37;3.25;;;11.10;65.30;;;;;;2301868;58;21054;-72
2022/05/15 03:31:20;;;;;;;7.82;4.15;;;11.10;65.10;;;;;;2301557;58;21058;-72
2022/05/15 03:33:47;;;;;;;8.82;3.83;;;11.20;64.90;;;;;;2320502;54;21027;-74
2022/05/15 03:36:15;;;;;;;10.32;4.00;;;11.20;64.90;;;;;;2301335;58;21162;-73
2022/05/15 03:38:47;;;;;;;10.45;4.25;;;11.20;64.90;;;;;;2327376;57;21068;-73
2022/05/15 03:41:15;;;;;;;10.15;4.20;;;11.10;64.80;;;;;;2572448;54;21049;-74
2022/05/15 03:43:43;;;;;;;9.38;4.57;;;11.20;64.80;;;;;;2328965;57;21125;-74
2022/05/15 03:46:11;;;;;;;7.45;4.15;;;11.20;64.70;;;;;;2571967;54;21046;-73
2022/05/15 03:48:38;;;;;;;13.15;4.45;;;11.20;64.90;;;;;;2329318;57;21327;-74
2022/05/15 03:51:06;;;;;;;10.10;4.57;;;11.10;64.80;;;;;;2329506;57;21089;-73
2022/05/15 03:53:34;;;;;;;12.65;5.00;;;11.10;64.80;;;;;;2328447;57;21065;-73
2022/05/15 03:56:02;;;;;;;12.50;5.47;;;11.10;65.10;;;;;;2328716;57;21057;-74
2022/05/15 03:58:34;;;;;;;14.98;4.90;;;11.10;65.30;;;;;;2572725;53;21095;-74
2022/05/15 04:01:02;;;;;;;12.00;4.72;;;11.10;65.50;;;;;;2572515;54;21041;-73
2022/05/15 04:03:29;;;;;;;9.18;4.47;;;11.10;65.40;;;;;;2327500;57;21070;-73
2022/05/15 04:05:57;;;;;;;14.70;5.05;;;11.10;65.40;;;;;;2328796;57;21084;-74
2022/05/15 04:08:24;;;;;;;8.93;4.78;;;11.20;65.30;;;;;;2328497;57;21599;-74
2022/05/15 04:10:51;;;;;;;11.43;4.50;;;11.20;65.40;;;;;;2329236;57;21128;-73
2022/05/15 04:13:19;;;;;;;13.15;5.35;;;11.20;65.30;;;;;;2326827;57;21563;-73
2022/05/15 04:15:46;;;;;;;12.25;4.97;;;11.20;65.30;;;;;;2329095;57;21128;-73
2022/05/15 04:18:13;;;;;;;11.00;4.85;;;11.30;65.50;;;;;;2329003;57;21065;-73
2022/05/15 04:20:42;;;;;;;10.45;5.32;;;11.30;65.60;;;;;;2329944;57;21057;-74
2022/05/15 04:23:09;;;;;;;13.48;5.62;;;11.30;65.90;;;;;;2329490;57;21072;-73
2022/05/15 04:25:36;;;;;;;19.52;6.15;;;11.30;66.10;;;;;;2329117;57;21072;-74
2022/05/15 04:28:04;;;;;;;17.05;6.43;;;11.40;66.40;;;;;;2328440;57;21574;-74
2022/05/15 04:30:32;;;;;;;14.77;6.05;;;11.40;66.90;;;;;;2327630;57;21049;-74
2022/05/15 04:32:59;;;;;;;14.75;6.60;;;11.40;67.50;;;;;;2328973;57;21049;-73
2022/05/15 04:35:26;;;;;;;12.45;6.05;;;11.50;66.70;;;;;;2328800;57;21578;-74
2022/05/15 04:37:53;;;;;;;14.43;6.45;;;11.50;67.20;;;;;;2329130;57;21056;-73
2022/05/15 04:40:22;;;;;;;12.52;5.62;;;11.50;67.40;;;;;;2329236;57;21738;-73
2022/05/15 04:42:49;;;;;;;9.80;5.62;;;11.50;67.70;;;;;;2328441;57;21539;-74
2022/05/15 04:45:16;;;;;;;16.20;7.45;;;11.60;67.90;;;;;;2327573;57;21639;-73
2022/05/15 04:47:45;;;;;;;12.63;5.50;;;11.60;68.10;;;;;;2571545;53;21049;-73
2022/05/15 04:50:14;;;;;;;12.30;5.90;;;11.70;68.30;;;;;;2329292;57;21065;-74
2022/05/15 04:52:41;;;;;;;11.65;5.60;;;11.70;68.50;;;;;;2572524;54;21053;-74
2022/05/15 04:55:10;;;;;;;12.32;6.43;;;11.70;68.70;;;;;;2328738;57;21065;-74
2022/05/15 04:57:37;;;;;;;9.00;5.30;;;11.80;68.70;;;;;;2328696;57;21058;-74
2022/05/15 05:00:10;;;;;;;11.35;6.03;;;11.90;68.90;;;;;;2329102;57;21065;-74
2022/05/15 05:02:37;;;;;;;8.02;4.97;;;11.90;69.00;;;;;;2329358;57;21109;-74
2022/05/15 05:05:06;;;;;;;10.23;5.47;;;11.90;69.20;;;;;;2327776;57;21041;-73
2022/05/15 05:07:33;;;;;;;14.90;5.95;;;11.90;69.40;;;;;;2329156;57;21073;-73
2022/05/15 05:10:01;;;;;;;12.75;5.62;;;12.00;69.60;;;;;;2328696;57;21041;-74
2022/05/15 05:12:28;;;;;;;11.75;6.07;;;12.00;70.10;;;;;;2328136;57;21064;-74
2022/05/15 05:14:57;;;;;;;10.75;5.62;;;12.00;70.20;;;;;;2328665;57;21081;-74
2022/05/15 05:17:25;;;;;;;11.43;5.60;;;12.00;70.20;;;;;;2571655;53;21049;-74
2022/05/15 05:19:52;;;;;;;12.63;6.37;;;12.10;70.40;;;;;;2328752;57;21137;-74
2022/05/15 05:22:20;;;;;;;12.95;6.53;;;12.10;70.40;;;;;;2328746;57;21121;-74
2022/05/15 05:24:48;;;;;;;15.77;6.12;;;12.10;70.50;;;;;;2328608;57;21057;-73
2022/05/15 05:27:15;;;;;;;11.07;5.62;;;12.20;70.60;;;;;;2327127;57;21611;-74
2022/05/15 05:29:43;;;;;;;11.65;5.70;;;12.20;70.70;;;;;;2328134;57;21045;-74
2022/05/15 05:32:11;;;;;;;13.07;7.05;;;12.20;71.00;;;;;;2328981;57;21539;-74
2022/05/15 05:34:38;;;;;;;12.35;6.53;;;12.30;71.30;;;;;;2329595;57;21567;-74
2022/05/15 05:37:05;;;;;;;13.95;7.30;;;12.30;71.30;;;;;;2327913;57;21073;-74
2022/05/15 05:39:33;;;;;;;14.60;7.03;;;12.30;71.50;;;;;;2328738;57;21069;-74
2022/05/15 05:42:00;;;;;;;17.33;7.60;;;12.30;71.60;;;;;;2329369;57;21127;-74
2022/05/15 05:44:27;;;;;;;14.63;7.07;;;12.40;71.70;;;;;;2329212;57;21140;-73
2022/05/15 05:46:55;;;;;;;13.75;7.18;;;12.40;72.30;;;;;;2324918;57;21643;-74
2022/05/15 05:49:22;;;;;;;13.05;6.47;;;12.40;72.50;;;;;;2327766;57;21137;-73
2022/05/15 05:51:49;;;;;;;15.60;6.60;;;12.50;73.00;;;;;;2329191;57;21052;-73
2022/05/15 05:54:16;;;;;;;16.83;7.30;;;12.50;72.30;;;;;;2571127;54;21108;-73
2022/05/15 05:56:43;;;;;;;15.20;7.15;;;12.50;73.00;;;;;;2328829;57;21156;-74
2022/05/15 05:59:11;;;;;;;14.70;6.18;;;12.60;72.60;;;;;;2329422;57;21120;-73
2022/05/15 06:01:38;;;;;;;14.93;6.43;;;12.60;72.50;;;;;;2328730;57;21064;-74
2022/05/15 06:06:51;;;;;;;18.48;7.43;;;12.70;72.60;;;;;;2328642;57;21032;-74
2022/05/15 06:09:18;;;;;;;17.25;6.82;;;12.80;73.00;;;;;;2328273;57;21041;-75
2022/05/15 06:11:46;;;;;;;15.50;6.68;;;12.80;73.50;;;;;;2328876;57;21128;-75
2022/05/15 06:14:13;;;;;;;11.68;5.12;;;12.80;74.00;;;;;;2328944;57;21057;-75
2022/05/15 06:16:40;;;;;;;21.90;7.70;;;12.70;74.50;;;;;;2328429;57;21074;-75
2022/05/15 06:19:08;;;;;;;14.63;6.70;;;12.80;74.90;;;;;;2571952;54;21084;-75
2022/05/15 06:21:36;;;;;;;14.45;6.43;;;12.80;75.10;;;;;;2573261;54;21088;-75
2022/05/15 06:24:04;;;;;;;15.32;5.90;;;12.80;75.20;;;;;;2327011;57;21048;-76
2022/05/15 06:26:31;;;;;;;13.55;5.00;;;12.90;75.00;;;;;;2327347;57;21041;-75
2022/05/15 06:28:58;;;;;;;8.70;4.37;;;12.90;74.70;;;;;;2328074;57;21623;-75
2022/05/15 06:31:26;;;;;;;17.02;6.03;;;12.90;74.40;;;;;;2329164;57;21120;-75
2022/05/15 06:33:53;;;;;;;14.52;6.18;;;13.00;75.20;;;;;;2328881;57;21061;-75
2022/05/15 06:36:20;;;;;;;11.15;5.35;;;13.00;74.50;;;;;;2328998;57;21184;-75
2022/05/15 06:38:47;;;;;;;9.20;4.20;;;13.10;74.40;;;;;;2327104;57;22521;-75
2022/05/15 06:41:14;;;;;;;8.18;4.22;;;13.20;74.20;;;;;;2328633;57;21076;-75
2022/05/15 06:43:42;;;;;;;6.35;3.03;;;13.30;74.10;;;;;;2328912;57;21077;-75
2022/05/15 06:46:09;;;;;;;5.93;2.92;;;13.30;73.30;;;;;;2328979;57;21065;-76
2022/05/15 06:48:38;;;;;;;9.13;3.70;;;13.40;72.70;;;;;;2327156;57;21065;-75
2022/05/15 06:51:06;;;;;;;5.25;3.15;;;13.40;72.00;;;;;;2328967;57;21057;-75
2022/05/15 06:53:34;;;;;;;7.95;3.33;;;13.40;71.40;;;;;;2328130;57;21085;-75
2022/05/15 06:58:47;;;;;;;7.10;2.78;;;13.40;70.40;;;;;;2327010;57;21036;-73
2022/05/15 07:01:15;;;;;;;9.93;2.60;;;13.50;70.30;;;;;;2327387;57;21184;-73
2022/05/15 07:03:42;;;;;;;6.18;2.40;;;13.50;70.10;;;;;;2570856;54;21129;-74
2022/05/15 07:06:10;;;;;;;4.40;2.15;;;13.50;71.00;;;;;;2329077;57;21056;-74
2022/05/15 07:08:37;;;;;;;6.78;3.30;;;13.60;70.10;;;;;;2573011;53;21104;-74
2022/05/15 07:11:05;;;;;;;5.90;2.30;;;13.70;70.10;;;;;;2327613;57;21615;-74
2022/05/15 07:13:32;;;;;;;5.07;2.20;;;13.70;69.90;;;;;;2328735;57;21120;-74
2022/05/15 07:18:37;;;;;;;9.35;2.37;;;13.80;69.40;;;;;;2330372;57;22628;-73
2022/05/15 07:21:05;;;;;;;5.30;2.50;;;13.90;68.70;;;;;;2346081;57;21041;-73
2022/05/15 07:23:32;;;;;;;7.55;2.12;;;14.00;68.30;;;;;;2346454;57;21121;-73
2022/05/15 07:26:00;;;;;;;4.50;2.12;;;14.00;67.80;;;;;;2346772;57;21045;-73
2022/05/15 07:28:27;;;;;;;4.32;1.80;;;14.10;67.10;;;;;;2347707;57;21033;-75
2022/05/15 07:30:55;;;;;;;5.50;2.00;;;14.20;67.00;;;;;;2345192;57;21049;-76
2022/05/15 07:33:24;;;;;;;6.32;1.95;;;14.20;66.50;;;;;;2592810;53;21093;-76
2022/05/15 07:35:51;;;;;;;4.22;2.05;;;14.20;67.10;;;;;;2593463;53;21077;-76
2022/05/15 07:38:18;;;;;;;8.07;2.50;;;14.30;66.80;;;;;;2345918;57;21556;-73
2022/05/15 07:40:46;;;;;;;9.98;2.37;;;14.30;66.90;;;;;;2347500;57;21128;-73
2022/05/15 07:43:14;;;;;;;6.22;2.58;;;14.40;66.90;;;;;;2347626;57;21088;-73
2022/05/15 07:45:42;;;;;;;6.85;2.53;;;14.40;66.70;;;;;;2347413;57;21046;-73
2022/05/15 07:48:09;;;;;;;5.00;2.10;;;14.40;66.50;;;;;;2347392;57;21042;-74
2022/05/15 07:50:38;;;;;;;5.93;2.37;;;14.50;66.40;;;;;;2346844;57;21117;-73
2022/05/15 07:53:06;;;;;;;4.80;2.17;;;14.60;66.00;;;;;;2346686;57;21026;-73
2022/05/15 07:55:33;;;;;;;3.60;2.03;;;14.60;65.70;;;;;;2347012;57;21117;-73
2022/05/15 07:58:00;;;;;;;5.35;2.10;;;14.70;64.70;;;;;;2347167;57;21041;-73
2022/05/15 08:00:28;;;;;;;3.47;2.15;;;14.70;64.80;;;;;;2346770;57;21058;-73
2022/05/15 08:03:03;;;;;;;6.97;2.53;;;14.70;65.50;;;;;;2346296;57;21101;-73
2022/05/15 08:08:20;;;;;;;2.50;1.65;;;14.80;65.80;;;;;;2300901;57;21110;-73
2022/05/15 08:10:48;;;;;;;3.62;1.58;;;14.80;64.90;;;;;;2346483;57;21022;-73
2022/05/15 08:13:17;;;;;;;4.40;1.60;;;14.80;64.80;;;;;;2346625;57;21057;-73
2022/05/15 08:15:46;;;;;;;5.95;1.95;;;14.90;64.80;;;;;;2346754;57;21120;-73
2022/05/15 08:23:48;;;;;;;4.22;2.20;;;15.10;63.70;;;;;;2346823;57;21033;-73
2022/05/15 08:26:16;;;;;;;4.90;1.70;;;15.10;63.30;;;;;;2345064;57;21116;-75
2022/05/15 08:28:43;;;;;;;2.87;1.40;;;15.20;63.00;;;;;;2345959;57;21113;-76
2022/05/15 08:31:11;;;;;;;5.07;1.50;;;15.20;62.20;;;;;;2345263;57;21058;-77
2022/05/15 08:33:39;;;;;;;3.42;1.25;;;15.30;62.20;;;;;;2345467;57;21121;-76
2022/05/15 08:36:08;;;;;;;3.90;1.60;;;15.30;61.40;;;;;;2345198;57;21113;-76
2022/05/15 08:38:37;;;;;;;2.08;1.33;;;15.30;61.80;;;;;;2345991;57;21040;-76
2022/05/15 08:41:15;;;;;;;3.78;1.50;;;15.40;61.10;;;;;;2345497;57;21045;-76
2022/05/15 08:43:47;;;;;;;3.33;1.62;;;15.40;61.20;;;;;;2345459;57;21026;-76
2022/05/15 08:49:12;;;;;;;4.97;1.12;;;15.50;61.80;;;;;;2355032;57;22081;-74
2022/05/15 08:51:51;;;;;;;2.17;1.42;;;15.60;59.90;;;;;;2347423;57;21120;-74
2022/05/15 08:54:18;;;;;;;3.40;1.58;;;15.60;59.40;;;;;;2346468;57;21117;-74
2022/05/15 08:56:50;;;;;;;3.78;1.48;;;15.70;59.70;;;;;;2349999;56;21596;-74
2022/05/15 09:01:59;;;;;;;4.43;1.10;;;15.70;58.60;;;;;;2354442;57;22500;-73
2022/05/15 09:04:27;;;;;;;2.50;1.33;;;15.70;57.50;;;;;;2346749;57;21037;-73
2022/05/15 09:07:06;;;;;;;6.40;2.00;;;15.80;57.50;;;;;;2352085;56;21534;-73
2022/05/15 09:09:45;;;;;;;3.95;1.20;;;15.80;56.30;;;;;;2627713;52;21146;-73
2022/05/15 09:12:17;;;;;;;1.90;1.00;;;15.90;55.80;;;;;;2374445;56;21047;-73
2022/05/15 09:17:45;;;;;;;1.77;1.05;;;15.90;55.10;;;;;;2271126;59;22181;-73
2022/05/15 09:20:18;;;;;;;3.17;1.25;;;16.00;55.90;;;;;;2265067;59;21137;-73
2022/05/15 09:22:54;;;;;;;2.80;1.23;;;16.10;55.30;;;;;;2494332;54;21136;-73
2022/05/15 09:25:25;;;;;;;2.42;1.17;;;16.10;55.10;;;;;;2264527;59;21078;-74
2022/05/15 09:28:01;;;;;;;1.45;1.10;;;16.10;54.40;;;;;;2264551;59;21165;-73
2022/05/15 09:30:38;;;;;;;1.10;0.77;;;16.10;54.20;;;;;;2261897;59;21066;-74
2022/05/15 09:33:06;;;;;;;1.27;1.17;;;16.20;53.90;;;;;;2263518;59;21228;-74
2022/05/15 09:35:38;;;;;;;2.50;1.02;;;16.20;52.90;;;;;;2264964;55;71834;-79
2022/05/15 09:43:58;;;;;;;3.47;1.40;;;16.30;50.60;;;;;;2268143;59;21072;-79
2022/05/15 09:46:27;;;;;;;4.37;1.48;;;16.30;51.60;;;;;;2496464;55;21094;-79
2022/05/15 09:49:00;;;;;;;2.55;1.65;;;16.40;52.90;;;;;;2495059;54;21764;-79
2022/05/15 09:51:33;;;;;;;2.33;1.10;;;16.40;52.60;;;;;;2266962;59;21082;-78
2022/05/15 09:54:00;;;;;;;1.92;1.30;;;16.50;53.20;;;;;;2267430;59;21146;-78
2022/05/15 09:56:30;;;;;;;4.70;1.52;;;16.50;53.00;;;;;;2267481;59;21095;-78
2022/05/15 09:59:01;;;;;;;2.30;1.20;;;16.60;53.20;;;;;;2266302;59;21123;-78
2022/05/15 10:01:36;;;;;;;4.35;1.40;;;16.60;54.00;;;;;;2497035;55;21075;-78
2022/05/15 10:04:05;;;;;;;2.03;1.30;;;16.70;53.60;;;;;;2267399;59;21071;-81
2022/05/15 10:06:37;;;;;;;4.12;1.25;;;16.70;53.70;;;;;;2266838;59;21075;-75
2022/05/15 10:09:10;;;;;;;3.15;1.40;;;16.80;53.40;;;;;;2497060;55;21070;-78
2022/05/15 10:11:40;;;;;;;2.90;1.20;;;16.80;53.30;;;;;;2268241;59;21114;-78
2022/05/15 10:14:15;;;;;;;1.98;1.02;;;16.90;52.30;;;;;;2497758;54;21083;-79
2022/05/15 10:16:53;;;;;;;4.15;1.25;;;16.90;52.00;;;;;;2498337;54;21086;-79
2022/05/15 10:19:26;;;;;;;2.72;1.48;;;17.00;51.90;;;;;;2497220;55;21563;-79
2022/05/15 10:22:04;;;;;;;4.20;1.17;;;17.00;52.00;;;;;;2267715;59;21098;-77
2022/05/15 10:24:37;;;;;;;1.52;1.10;;;17.00;52.50;;;;;;2268077;59;21142;-78
2022/05/15 10:27:10;;;;;;;2.03;0.93;;;17.10;52.80;;;;;;2496650;54;21071;-78
2022/05/15 10:29:42;;;;;;;2.75;1.00;;;17.20;52.20;;;;;;2497316;54;21517;-78
2022/05/15 10:32:15;;;;;;;2.58;1.10;;;17.20;52.10;;;;;;2266516;59;21079;-77
2022/05/15 10:34:43;;;;;;;1.98;1.30;;;17.30;51.70;;;;;;2495814;55;21704;-78
2022/05/15 10:37:50;;;;;;;1.98;1.15;;;17.30;52.30;;;;;;2265672;59;21082;-77
2022/05/15 10:40:27;;;;;;;2.97;1.25;;;17.30;52.50;;;;;;2266204;59;21055;-79
2022/05/15 10:43:07;;;;;;;2.37;1.23;;;17.40;50.50;;;;;;2496433;54;21063;-79
2022/05/15 10:45:41;;;;;;;2.85;1.17;;;17.40;50.90;;;;;;2266134;59;21074;-79
2022/05/15 10:48:26;;;;;;;3.35;1.17;;;17.50;50.70;;;;;;2496801;55;21066;-79
2022/05/15 10:50:59;;;;;;;3.40;1.20;;;17.60;50.70;;;;;;2266756;59;21090;-78
2022/05/15 10:59:45;;;;;;;3.05;1.20;;;17.80;49.80;;;;;;2266893;59;21015;-78
2022/05/15 11:02:34;;;;;;;2.67;1.00;;;18.00;49.60;;;;;;2266476;59;21244;-79
2022/05/15 11:05:06;;;;;;;2.58;1.40;;;18.10;49.90;;;;;;2266548;59;21059;-79
2022/05/15 11:07:40;;;;;;;3.33;1.17;;;18.30;49.40;;;;;;2265123;59;21107;-78
2022/05/15 11:10:15;;;;;;;3.35;1.27;;;18.40;49.80;;;;;;2266877;59;21062;-79
2022/05/15 11:12:51;;;;;;;2.80;1.15;;;18.50;48.70;;;;;;2266395;59;21607;-77
2022/05/15 11:18:46;;;;;;;1.98;0.80;;;18.80;48.40;;;;;;2376155;56;22144;-76
2022/05/15 11:21:24;;;;;;;3.50;1.00;;;19.00;47.70;;;;;;2375278;56;21557;-76
2022/05/15 11:23:58;;;;;;;2.28;1.33;;;19.10;46.60;;;;;;2373979;56;21110;-76
2022/05/15 11:26:33;;;;;;;2.37;1.05;;;19.20;46.70;;;;;;2374222;56;21039;-76
2022/05/15 11:29:08;;;;;;;2.45;1.48;;;19.40;46.80;;;;;;2373812;56;21121;-76
2022/05/15 11:31:38;;;;;;;2.70;1.10;;;19.50;47.20;;;;;;2373960;56;21058;-74
2022/05/15 11:34:07;;;;;;;1.60;1.10;;;19.60;46.30;;;;;;2374474;56;21090;-75
2022/05/15 11:36:37;;;;;;;2.67;1.15;;;19.70;46.20;;;;;;2373099;56;21110;-74
2022/05/15 11:42:10;;;;;;;2.15;0.90;;;19.80;45.00;;;;;;2328203;57;23202;-73
2022/05/15 11:44:40;;;;;;;3.22;1.08;;;20.00;45.40;;;;;;2346193;57;21089;-74
2022/05/15 11:47:39;;;;;;;1.00;0.80;;;20.20;44.70;;;;;;2346119;57;22030;-73
2022/05/15 11:50:13;;;;;;;3.55;1.20;;;20.30;44.70;;;;;;2593462;53;21075;-73
2022/05/15 11:53:01;;;;;;;2.95;1.15;;;20.40;43.70;;;;;;2345729;57;21048;-73
2022/05/15 11:55:45;;;;;;;1.77;1.05;;;20.50;44.30;;;;;;2345434;57;21122;-73
2022/05/15 11:58:27;;;;;;;2.42;1.35;;;20.60;44.70;;;;;;2345197;57;21067;-74
2022/05/15 12:01:08;;;;;;;1.85;1.00;;;20.70;42.80;;;;;;2344607;57;21074;-74
2022/05/15 12:03:52;;;;;;;2.08;1.10;;;20.80;42.70;;;;;;2345816;57;21071;-73
2022/05/15 12:06:22;;;;;;;;;;;20.90;42.90;;;;;;2349152;57;21544;-74
2022/05/15 12:09:23;;;;;;;2.15;1.20;;;20.90;43.10;;;;;;2341794;57;21069;-73
2022/05/15 12:11:53;;;;;;;2.15;1.00;;;21.00;42.80;;;;;;2344147;57;21101;-73
2022/05/15 12:14:34;;;;;;;3.08;1.00;;;21.20;42.30;;;;;;2343164;57;21051;-73
2022/05/15 12:17:05;;;;;;;2.28;1.08;;;21.20;42.50;;;;;;2342989;57;21194;-74
2022/05/15 12:19:35;;;;;;;3.12;1.12;;;21.30;43.70;;;;;;2345070;57;21043;-73
2022/05/15 12:22:05;;;;;;;2.70;0.93;;;21.40;43.90;;;;;;2591534;52;21055;-74
2022/05/15 12:24:37;;;;;;;1.92;0.82;;;21.50;42.70;;;;;;2345658;57;21039;-75
2022/05/15 12:30:04;;;;;;;1.48;0.95;;;21.50;42.90;;;;;;2327717;57;22538;-74
2022/05/15 12:32:37;;;;;;;2.28;1.10;;;21.80;42.00;;;;;;2590085;53;22116;-74
2022/05/15 12:35:11;;;;;;;2.10;1.13;;;21.90;41.50;;;;;;2345653;57;21057;-74
2022/05/15 12:37:53;;;;;;;3.65;1.33;;;22.00;42.60;;;;;;2357524;56;21050;-74
2022/05/15 12:40:28;;;;;;;2.05;1.27;;;22.00;42.30;;;;;;2369449;56;21117;-74
2022/05/15 12:42:56;;;;;;;2.33;1.10;;;22.10;41.70;;;;;;2368700;56;21058;-74
2022/05/15 12:45:24;;;;;;;3.08;1.00;;;22.20;41.20;;;;;;2369015;56;21039;-74
2022/05/15 12:48:05;;;;;;;1.95;0.93;;;22.20;40.80;;;;;;2367026;56;21123;-74
2022/05/15 12:50:34;;;;;;;3.08;0.90;;;22.20;40.30;;;;;;2369393;56;21094;-73
2022/05/15 12:53:03;;;;;;;3.08;1.20;;;22.20;40.20;;;;;;2369235;56;21066;-75
2022/05/15 12:55:33;;;;;;;1.70;0.88;;;22.20;39.90;;;;;;2620795;52;21086;-74
2022/05/15 12:58:05;;;;;;;1.27;1.00;;;22.30;40.50;;;;;;2368583;56;21130;-73
2022/05/15 13:00:36;;;;;;;2.17;0.80;;;22.40;40.50;;;;;;2620592;52;21095;-73
2022/05/15 13:03:06;;;;;;;2.80;0.95;;;22.50;39.80;;;;;;2619428;52;21647;-73
2022/05/15 13:05:36;;;;;;;1.00;0.75;;;22.50;40.10;;;;;;2368694;56;21552;-72
2022/05/15 13:08:06;;;;;;;1.42;1.00;;;22.60;39.90;;;;;;2368815;56;21043;-73
2022/05/15 13:10:36;;;;;;;2.47;0.90;;;22.60;40.70;;;;;;2621072;52;21039;-72
2022/05/15 13:13:16;;;;;;;1.62;0.95;;;22.70;39.70;;;;;;2368907;56;21033;-74
2022/05/15 13:15:48;;;;;;;1.58;1.00;;;22.70;40.30;;;;;;2369238;56;21051;-75
2022/05/15 13:18:16;;;;;;;3.05;1.23;;;22.80;40.10;;;;;;2368889;56;21106;-72
2022/05/15 13:20:48;;;;;;;4.68;1.08;;;22.90;40.40;;;;;;2368769;56;21051;-75
2022/05/15 13:23:17;;;;;;;1.20;0.90;;;22.90;40.40;;;;;;2368895;56;21113;-74
2022/05/15 13:25:49;;;;;;;2.15;1.00;;;22.90;39.90;;;;;;2369212;56;21090;-74
2022/05/15 13:28:17;;;;;;;2.03;1.00;;;22.90;38.70;;;;;;2366889;56;21038;-74
2022/05/15 13:33:26;;;;;;;2.35;1.00;;;22.90;39.30;;;;;;2331011;57;22853;-73
2022/05/15 13:35:57;;;;;;;1.52;1.08;;;22.90;40.60;;;;;;2291928;58;21051;-73
2022/05/15 13:38:27;;;;;;;2.33;1.10;;;23.00;40.30;;;;;;2551869;54;21057;-73
2022/05/15 13:43:58;;;;;;;2.05;1.00;;;23.10;40.20;;;;;;2317056;58;21068;-74
2022/05/15 13:46:28;;;;;;;1.42;1.05;;;23.10;40.20;;;;;;2315337;58;21052;-73
2022/05/15 13:48:58;;;;;;;1.92;1.25;;;23.20;39.60;;;;;;2317909;58;21041;-73
2022/05/15 13:51:37;;;;;;;1.08;0.95;;;23.20;38.60;;;;;;2316725;58;21053;-73